createdAt,value
2018-05-06T00:01:32.341Z,5.70
2018-05-06T00:03:58.768Z,6.10
2018-05-06T00:06:25.920Z,5.63
2018-05-06T00:08:52.345Z,5.60
2018-05-06T00:11:18.749Z,6.20
2018-05-06T00:13:45.761Z,5.97
2018-05-06T00:16:12.219Z,5.40
2018-05-06T00:18:38.638Z,5.47
2018-05-06T00:21:05.027Z,6.17
2018-05-06T00:23:31.448Z,5.50
2018-05-06T00:25:58.492Z,6.20
2018-05-06T00:28:25.624Z,5.50
2018-05-06T00:30:52.029Z,7.40
2018-05-06T00:33:18.428Z,5.40
2018-05-06T00:35:45.549Z,6.60
2018-05-06T00:38:12.692Z,5.90
2018-05-06T00:40:39.907Z,5.47
2018-05-06T00:43:06.348Z,5.30
2018-05-06T00:45:33.795Z,5.40
2018-05-06T00:48:00.219Z,5.23
2018-05-06T00:50:26.638Z,6.03
2018-05-06T00:52:53.076Z,5.80
2018-05-06T00:55:19.429Z,6.13
2018-05-06T00:57:45.856Z,6.13
2018-05-06T01:00:12.229Z,6.13
2018-05-06T01:02:38.650Z,5.97
2018-05-06T01:05:05.052Z,5.93
2018-05-06T01:07:31.464Z,5.73
2018-05-06T01:09:57.841Z,5.80
2018-05-06T01:12:24.975Z,5.40
2018-05-06T01:14:52.160Z,5.10
2018-05-06T01:17:18.532Z,5.37
2018-05-06T01:19:44.945Z,6.50
2018-05-06T01:22:11.306Z,5.80
2018-05-06T01:24:37.672Z,5.93
2018-05-06T01:27:04.071Z,5.87
2018-05-06T01:29:30.507Z,6.10
2018-05-06T01:31:56.904Z,5.87
2018-05-06T01:34:23.287Z,5.43
2018-05-06T01:36:50.408Z,6.00
2018-05-06T01:39:16.773Z,5.30
2018-05-06T01:41:43.917Z,5.80
2018-05-06T01:44:11.022Z,6.50
2018-05-06T01:46:38.089Z,5.87
2018-05-06T01:49:04.453Z,6.60
2018-05-06T01:51:30.839Z,5.17
2018-05-06T01:53:57.248Z,5.57
2018-05-06T01:56:23.606Z,5.50
2018-05-06T01:58:49.987Z,6.53
2018-05-06T02:01:16.336Z,5.60
2018-05-06T02:03:42.741Z,6.00
2018-05-06T02:06:09.140Z,5.90
2018-05-06T02:08:36.307Z,5.33
2018-05-06T02:11:02.716Z,6.07
2018-05-06T02:13:29.145Z,5.97
2018-05-06T02:15:55.538Z,5.90
2018-05-06T02:18:21.951Z,6.27
2018-05-06T02:20:48.324Z,5.40
2018-05-06T02:23:14.721Z,6.00
2018-05-06T02:25:41.104Z,5.80
2018-05-06T02:28:07.438Z,5.60
2018-05-06T02:30:34.569Z,5.50
2018-05-06T02:33:00.941Z,5.57
2018-05-06T02:35:28.076Z,5.50
2018-05-06T02:37:55.204Z,5.50
2018-05-06T02:40:22.404Z,5.37
2018-05-06T02:42:48.757Z,6.10
2018-05-06T02:45:15.152Z,5.53
2018-05-06T02:47:41.505Z,5.67
2018-05-06T02:50:07.912Z,7.03
2018-05-06T02:52:34.284Z,6.20
2018-05-06T02:55:00.644Z,6.10
2018-05-06T02:57:27.783Z,6.33
2018-05-06T02:59:54.169Z,6.00
2018-05-06T03:02:20.564Z,6.35
2018-05-06T03:04:47.680Z,5.93
2018-05-06T03:07:14.072Z,5.63
2018-05-06T03:09:40.436Z,6.07
2018-05-06T03:12:06.873Z,5.70
2018-05-06T03:14:33.304Z,6.28
2018-05-06T03:16:59.682Z,5.20
2018-05-06T03:19:26.060Z,5.43
2018-05-06T03:21:52.457Z,6.05
2018-05-06T03:24:18.812Z,5.50
2018-05-06T03:26:45.215Z,6.40
2018-05-06T03:29:11.688Z,6.20
2018-05-06T03:31:37.981Z,5.50
2018-05-06T03:34:04.360Z,5.93
2018-05-06T03:36:31.496Z,5.80
2018-05-06T03:38:57.869Z,5.80
2018-05-06T03:41:24.252Z,5.70
2018-05-06T03:43:50.661Z,5.65
2018-05-06T03:46:17.092Z,4.97
2018-05-06T03:48:43.475Z,5.05
2018-05-06T03:51:10.591Z,5.87
2018-05-06T03:53:36.942Z,5.20
2018-05-06T03:59:53.608Z,5.37
2018-05-06T04:05:19.095Z,5.10
2018-05-06T04:07:45.503Z,5.65
2018-05-06T04:10:11.957Z,5.30
2018-05-06T04:12:38.372Z,4.95
2018-05-06T04:15:04.742Z,5.22
2018-05-06T04:17:31.126Z,6.00
2018-05-06T04:19:57.476Z,4.97
2018-05-06T04:22:23.899Z,5.90
2018-05-06T04:24:50.327Z,5.55
2018-05-06T04:27:16.732Z,5.00
2018-05-06T04:29:43.081Z,5.87
2018-05-06T04:32:09.479Z,5.28
2018-05-06T04:34:35.824Z,5.68
2018-05-06T04:37:02.196Z,4.97
2018-05-06T04:39:29.336Z,5.12
2018-05-06T04:41:55.715Z,5.05
2018-05-06T04:44:22.127Z,5.00
2018-05-06T04:46:48.544Z,5.43
2018-05-06T04:49:15.699Z,4.55
2018-05-06T04:51:42.073Z,5.12
2018-05-06T04:54:08.423Z,5.03
2018-05-06T04:56:34.834Z,5.10
2018-05-06T04:59:01.204Z,5.15
2018-05-06T05:01:27.624Z,4.78
2018-05-06T05:03:53.999Z,5.75
2018-05-06T05:06:20.405Z,4.40
2018-05-06T05:08:46.861Z,5.00
2018-05-06T05:11:13.248Z,5.35
2018-05-06T05:13:39.709Z,6.05
2018-05-06T05:16:06.088Z,5.25
2018-05-06T05:18:32.488Z,5.03
2018-05-06T05:20:58.920Z,5.15
2018-05-06T05:23:25.302Z,4.70
2018-05-06T05:25:51.692Z,5.45
2018-05-06T05:28:18.089Z,4.30
2018-05-06T05:30:44.508Z,5.25
2018-05-06T05:33:11.624Z,4.90
2018-05-06T05:35:38.047Z,5.12
2018-05-06T05:38:04.404Z,4.30
2018-05-06T05:40:30.835Z,4.30
2018-05-06T05:42:57.225Z,4.18
2018-05-06T05:45:23.705Z,4.70
2018-05-06T05:47:50.857Z,3.60
2018-05-06T05:50:17.275Z,4.85
2018-05-06T05:52:43.719Z,3.80
2018-05-06T05:55:10.112Z,4.22
2018-05-06T05:57:36.458Z,4.12
2018-05-06T06:00:02.901Z,3.80
2018-05-06T06:02:29.272Z,4.03
2018-05-06T06:04:55.685Z,3.70
2018-05-06T06:07:22.101Z,3.67
2018-05-06T06:09:49.279Z,4.22
2018-05-06T06:12:15.719Z,4.28
2018-05-06T06:14:42.121Z,4.78
2018-05-06T06:17:09.245Z,3.90
2018-05-06T06:19:35.680Z,3.95
2018-05-06T06:22:02.105Z,4.55
2018-05-06T06:24:28.701Z,4.10
2018-05-06T06:26:55.112Z,3.83
2018-05-06T06:29:21.551Z,4.30
2018-05-06T06:31:48.180Z,3.60
2018-05-06T06:34:15.296Z,3.83
2018-05-06T06:36:41.767Z,3.95
2018-05-06T06:39:08.921Z,3.70
2018-05-06T06:41:35.343Z,4.15
2018-05-06T06:44:01.762Z,4.00
2018-05-06T06:46:28.239Z,4.93
2018-05-06T06:48:54.696Z,4.95
2018-05-06T06:51:21.164Z,4.00
2018-05-06T06:53:48.265Z,3.90
2018-05-06T06:56:14.791Z,3.50
2018-05-06T06:58:41.229Z,3.80
2018-05-06T07:01:07.605Z,3.70
2018-05-06T07:03:34.865Z,3.50
2018-05-06T07:06:01.301Z,4.57
2018-05-06T07:08:27.686Z,3.50
2018-05-06T07:10:54.082Z,4.07
2018-05-06T07:13:20.580Z,3.90
2018-05-06T07:15:48.507Z,3.50
2018-05-06T07:18:14.909Z,3.97
2018-05-06T07:20:41.319Z,4.57
2018-05-06T07:23:07.794Z,3.97
2018-05-06T07:25:34.193Z,3.70
2018-05-06T07:28:00.676Z,4.20
2018-05-06T07:30:27.096Z,4.50
2018-05-06T07:32:53.566Z,4.00
2018-05-06T07:35:19.993Z,4.30
2018-05-06T07:37:46.420Z,4.63
2018-05-06T07:40:12.847Z,3.90
2018-05-06T07:42:39.255Z,4.50
2018-05-06T07:45:05.661Z,3.93
2018-05-06T07:47:32.066Z,4.73
2018-05-06T07:49:58.530Z,4.40
2018-05-06T07:52:24.933Z,4.43
2018-05-06T07:54:52.095Z,4.23
2018-05-06T07:57:18.562Z,3.60
2018-05-06T07:59:44.979Z,4.40
2018-05-06T08:02:11.557Z,4.50
2018-05-06T08:04:37.988Z,3.50
2018-05-06T08:07:04.458Z,5.87
2018-05-06T08:09:30.927Z,4.20
2018-05-06T08:11:58.113Z,4.80
2018-05-06T08:14:25.337Z,4.40
2018-05-06T08:16:51.777Z,3.80
2018-05-06T08:19:18.698Z,3.90
2018-05-06T08:21:45.205Z,4.90
2018-05-06T08:24:11.590Z,4.47
2018-05-06T08:26:37.984Z,4.27
2018-05-06T08:29:04.408Z,4.80
2018-05-06T08:31:30.872Z,4.50
2018-05-06T08:33:57.292Z,4.87
2018-05-06T08:36:23.770Z,4.37
2018-05-06T08:38:50.244Z,4.97
2018-05-06T08:41:17.662Z,5.20
2018-05-06T08:43:44.119Z,4.10
2018-05-06T08:46:10.574Z,5.30
2018-05-06T08:48:44.714Z,4.20
2018-05-06T08:51:11.988Z,4.40
2018-05-06T08:53:38.545Z,5.17
2018-05-06T08:56:04.932Z,4.87
2018-05-06T08:58:31.400Z,5.40
2018-05-06T09:00:57.796Z,4.80
2018-05-06T09:03:24.389Z,5.50
2018-05-06T09:05:50.781Z,5.10
2018-05-06T09:08:17.922Z,5.07
2018-05-06T09:10:44.357Z,4.87
2018-05-06T09:13:10.768Z,4.80
2018-05-06T09:15:37.249Z,4.70
2018-05-06T09:18:03.648Z,4.70
2018-05-06T09:20:30.046Z,4.33
2018-05-06T09:22:56.445Z,4.80
2018-05-06T09:25:22.944Z,4.77
2018-05-06T09:27:49.283Z,4.80
2018-05-06T09:30:15.715Z,5.27
2018-05-06T09:32:42.872Z,4.90
2018-05-06T09:35:09.310Z,5.50
2018-05-06T09:37:35.994Z,5.83
2018-05-06T09:40:02.526Z,4.70
2018-05-06T09:42:28.936Z,4.20
2018-05-06T09:44:55.335Z,4.13
2018-05-06T09:47:21.760Z,5.03
2018-05-06T09:49:48.903Z,5.30
2018-05-06T09:52:16.113Z,4.73
2018-05-06T09:54:42.616Z,4.77
2018-05-06T09:57:08.987Z,4.73
2018-05-06T09:59:35.430Z,4.70
2018-05-06T10:02:01.811Z,4.40
2018-05-06T10:04:28.224Z,5.20
2018-05-06T10:06:55.343Z,6.00
2018-05-06T10:09:21.823Z,5.10
2018-05-06T10:11:48.311Z,5.93
2018-05-06T10:14:14.759Z,5.00
2018-05-06T10:16:41.195Z,5.20
2018-05-06T10:19:08.332Z,5.33
2018-05-06T10:21:35.662Z,4.10
2018-05-06T10:24:02.180Z,4.50
2018-05-06T10:26:28.655Z,5.97
2018-05-06T10:28:55.790Z,5.43
2018-05-06T10:31:22.245Z,4.57
2018-05-06T10:33:49.383Z,5.40
2018-05-06T10:36:18.079Z,5.13
2018-05-06T10:38:45.301Z,5.60
2018-05-06T10:41:12.499Z,5.80
2018-05-06T10:43:39.313Z,5.67
2018-05-06T10:46:05.838Z,4.60
2018-05-06T10:48:32.330Z,4.83
2018-05-06T10:50:58.821Z,5.27
2018-05-06T10:53:25.328Z,5.67
2018-05-06T10:55:51.750Z,5.27
2018-05-06T10:58:18.151Z,5.63
2018-05-06T11:00:44.645Z,5.77
2018-05-06T11:03:11.801Z,5.30
2018-05-06T11:05:38.938Z,4.60
2018-05-06T11:08:06.113Z,5.57
2018-05-06T11:10:32.587Z,4.80
2018-05-06T11:12:59.020Z,4.70
2018-05-06T11:15:25.536Z,4.70
2018-05-06T11:17:51.970Z,4.87
2018-05-06T11:20:18.310Z,4.23
2018-05-06T11:22:44.726Z,4.90
2018-05-06T11:25:11.121Z,3.60
2018-05-06T11:27:37.544Z,4.10
2018-05-06T11:30:04.741Z,4.63
2018-05-06T11:32:31.169Z,3.80
2018-05-06T11:34:57.628Z,4.90
2018-05-06T11:37:24.009Z,3.37
2018-05-06T11:39:50.472Z,4.77
2018-05-06T11:42:16.863Z,4.10
2018-05-06T11:44:43.225Z,3.63
2018-05-06T11:47:09.706Z,4.80
2018-05-06T11:49:36.876Z,4.10
2018-05-06T11:52:03.339Z,4.87
2018-05-06T11:54:29.833Z,4.13
2018-05-06T11:56:57.015Z,5.00
2018-05-06T11:59:23.424Z,3.73
2018-05-06T12:01:49.799Z,4.30
2018-05-06T12:04:16.205Z,2.97
2018-05-06T12:06:42.656Z,4.73
2018-05-06T12:09:09.160Z,5.00
2018-05-06T12:11:35.552Z,4.13
2018-05-06T12:14:09.702Z,4.80
2018-05-06T12:16:36.102Z,3.90
2018-05-06T12:19:02.513Z,4.50
2018-05-06T12:21:28.887Z,4.40
2018-05-06T12:23:55.324Z,4.20
2018-05-06T12:26:21.724Z,6.40
2018-05-06T12:28:48.185Z,3.90
2018-05-06T12:31:14.576Z,3.97
2018-05-06T12:33:41.032Z,3.87
2018-05-06T12:36:08.180Z,3.30
2018-05-06T12:38:35.390Z,4.00
2018-05-06T12:41:01.801Z,4.50
2018-05-06T12:43:28.360Z,3.80
2018-05-06T12:45:54.753Z,3.33
2018-05-06T12:48:21.200Z,4.07
2018-05-06T12:50:47.601Z,3.90
2018-05-06T12:53:14.077Z,3.87
2018-05-06T12:55:40.569Z,3.40
2018-05-06T12:58:06.964Z,3.77
2018-05-06T13:00:34.190Z,4.40
2018-05-06T13:03:01.415Z,4.33
2018-05-06T13:05:27.877Z,3.57
2018-05-06T13:07:54.284Z,4.00
2018-05-06T13:10:20.731Z,4.03
2018-05-06T13:12:47.200Z,3.77
2018-05-06T13:15:14.381Z,4.40
2018-05-06T13:17:40.897Z,3.90
2018-05-06T13:20:08.070Z,4.50
2018-05-06T13:22:34.460Z,4.60
2018-05-06T13:25:00.887Z,4.00
2018-05-06T13:27:27.389Z,4.23
2018-05-06T13:29:54.572Z,4.40
2018-05-06T13:32:21.095Z,3.63
2018-05-06T13:34:47.552Z,3.50
2018-05-06T13:37:14.002Z,3.40
2018-05-06T13:39:40.400Z,3.33
2018-05-06T13:42:06.769Z,3.80
2018-05-06T13:44:33.789Z,3.00
2018-05-06T13:47:00.254Z,3.47
2018-05-06T13:49:26.715Z,3.77
2018-05-06T13:51:53.106Z,3.20
2018-05-06T13:54:19.532Z,3.50
2018-05-06T13:56:45.945Z,3.50
2018-05-06T13:59:13.108Z,3.80
2018-05-06T14:01:39.508Z,3.10
2018-05-06T14:04:05.922Z,3.97
2018-05-06T14:06:32.307Z,3.70
2018-05-06T14:08:58.718Z,3.30
2018-05-06T14:11:25.169Z,3.47
2018-05-06T14:13:51.604Z,3.17
2018-05-06T14:16:18.101Z,2.90
2018-05-06T14:18:44.556Z,3.10
2018-05-06T14:21:11.695Z,3.53
2018-05-06T14:23:38.068Z,3.33
2018-05-06T14:26:04.517Z,2.80
2018-05-06T14:28:30.955Z,2.97
2018-05-06T14:30:57.440Z,3.57
2018-05-06T14:33:23.871Z,2.97
2018-05-06T14:35:50.373Z,2.50
2018-05-06T14:38:16.735Z,2.87
2018-05-06T14:40:43.176Z,3.70
2018-05-06T14:43:09.650Z,3.00
2018-05-06T14:45:36.080Z,2.73
2018-05-06T14:48:14.553Z,2.60
2018-05-06T14:50:41.064Z,2.90
2018-05-06T14:53:08.278Z,2.80
2018-05-06T14:55:34.743Z,3.63
2018-05-06T14:58:01.925Z,3.20
2018-05-06T15:00:28.345Z,2.97
2018-05-06T15:02:54.860Z,2.57
2018-05-06T15:05:21.372Z,2.13
2018-05-06T15:07:47.851Z,2.70
2018-05-06T15:10:14.335Z,2.70
2018-05-06T15:12:40.744Z,2.63
2018-05-06T15:15:07.184Z,2.67
2018-05-06T15:17:33.668Z,3.30
2018-05-06T15:20:00.820Z,3.07
2018-05-06T15:22:27.233Z,2.77
2018-05-06T15:24:55.172Z,2.77
2018-05-06T15:27:21.619Z,2.80
2018-05-06T15:29:48.060Z,2.30
2018-05-06T15:32:14.453Z,2.53
2018-05-06T15:34:40.885Z,2.37
2018-05-06T15:37:07.318Z,2.80
2018-05-06T15:39:34.135Z,2.20
2018-05-06T15:42:00.611Z,2.50
2018-05-06T15:44:27.141Z,2.40
2018-05-06T15:46:53.533Z,2.97
2018-05-06T15:49:19.961Z,2.80
2018-05-06T15:51:46.431Z,2.83
2018-05-06T15:54:12.918Z,2.83
2018-05-06T15:56:40.126Z,3.23
2018-05-06T15:59:07.117Z,2.50
2018-05-06T16:01:33.589Z,3.20
2018-05-06T16:04:15.093Z,2.93
2018-05-06T16:06:41.541Z,2.30
2018-05-06T16:09:07.995Z,2.70
2018-05-06T16:11:34.481Z,2.40
2018-05-06T16:14:00.927Z,2.70
2018-05-06T16:16:27.386Z,3.00
2018-05-06T16:19:00.645Z,2.87
2018-05-06T16:21:27.111Z,2.33
2018-05-06T16:23:53.569Z,2.67
2018-05-06T16:26:19.990Z,3.53
2018-05-06T16:28:46.485Z,3.00
2018-05-06T16:31:13.073Z,3.10
2018-05-06T16:33:39.467Z,3.07
2018-05-06T16:36:06.742Z,2.20
2018-05-06T16:38:33.905Z,2.20
2018-05-06T16:41:00.321Z,1.90
2018-05-06T16:43:26.759Z,2.37
2018-05-06T16:45:53.865Z,2.40
2018-05-06T16:48:20.236Z,1.90
2018-05-06T16:50:46.642Z,2.37
2018-05-06T16:53:13.141Z,2.77
2018-05-06T16:55:39.645Z,2.77
2018-05-06T16:58:06.079Z,2.30
2018-05-06T17:00:32.564Z,3.10
2018-05-06T17:02:59.727Z,1.33
2018-05-06T17:05:26.174Z,1.97
2018-05-06T17:07:53.334Z,2.70
2018-05-06T17:10:19.848Z,1.80
2018-05-06T17:12:46.339Z,1.83
2018-05-06T17:15:12.814Z,2.33
2018-05-06T17:17:39.271Z,2.30
2018-05-06T17:20:11.365Z,3.10
2018-05-06T17:22:37.857Z,2.47
2018-05-06T17:25:04.489Z,2.67
2018-05-06T17:27:30.999Z,2.60
2018-05-06T17:29:57.543Z,2.43
2018-05-06T17:32:24.121Z,1.70
2018-05-06T17:34:50.649Z,3.03
2018-05-06T17:37:17.131Z,2.17
2018-05-06T17:39:44.317Z,2.90
2018-05-06T17:42:10.855Z,2.00
2018-05-06T17:44:37.339Z,2.43
2018-05-06T17:47:03.895Z,2.83
2018-05-06T17:49:30.348Z,2.53
2018-05-06T17:51:56.942Z,2.60
2018-05-06T17:54:24.100Z,2.33
2018-05-06T17:56:50.571Z,2.80
2018-05-06T17:59:17.199Z,2.60
2018-05-06T18:01:43.718Z,2.73
2018-05-06T18:04:10.124Z,2.13
2018-05-06T18:06:36.648Z,2.43
2018-05-06T18:09:03.257Z,2.40
2018-05-06T18:11:29.708Z,2.40
2018-05-06T18:13:56.177Z,2.27
2018-05-06T18:16:22.591Z,1.80
2018-05-06T18:18:49.920Z,2.40
2018-05-06T18:21:16.358Z,2.27
2018-05-06T18:23:42.924Z,2.70
2018-05-06T18:26:09.334Z,2.00
2018-05-06T18:28:36.573Z,2.00
2018-05-06T18:31:04.681Z,2.20
2018-05-06T18:33:31.154Z,2.07
2018-05-06T18:35:58.431Z,2.10
2018-05-06T18:38:24.905Z,2.20
2018-05-06T18:40:51.389Z,1.97
2018-05-06T18:43:24.867Z,2.00
2018-05-06T18:45:51.301Z,2.60
2018-05-06T18:48:17.737Z,2.03
2018-05-06T18:50:44.323Z,2.03
2018-05-06T18:53:10.758Z,2.00
2018-05-06T18:55:37.330Z,2.50
2018-05-06T18:58:03.750Z,1.80
2018-05-06T19:00:30.204Z,2.20
2018-05-06T19:02:56.683Z,2.23
2018-05-06T19:05:23.197Z,1.93
2018-05-06T19:07:49.877Z,3.40
2018-05-06T19:10:16.337Z,2.30
2018-05-06T19:12:42.879Z,2.20
2018-05-06T19:15:10.066Z,2.30
2018-05-06T19:17:37.341Z,2.10
2018-05-06T19:20:03.930Z,2.40
2018-05-06T19:22:30.496Z,2.00
2018-05-06T19:24:57.003Z,2.40
2018-05-06T19:27:24.200Z,1.73
2018-05-06T19:29:50.665Z,1.90
2018-05-06T19:32:17.233Z,2.20
2018-05-06T19:34:44.544Z,2.50
2018-05-06T19:37:11.004Z,2.27
2018-05-06T19:39:38.345Z,2.30
2018-05-06T19:42:06.166Z,2.53
2018-05-06T19:44:31.698Z,2.60
2018-05-06T19:46:58.248Z,2.67
2018-05-06T19:49:25.504Z,2.83
2018-05-06T19:51:52.025Z,3.03
2018-05-06T19:54:18.594Z,3.10
2018-05-06T19:56:45.099Z,3.93
2018-05-06T19:59:11.633Z,6.20
2018-05-06T20:01:38.835Z,3.40
2018-05-06T20:04:05.315Z,3.40
2018-05-06T20:06:31.825Z,3.50
2018-05-06T20:08:58.451Z,3.30
2018-05-06T20:11:25.076Z,2.80
2018-05-06T20:13:51.715Z,3.50
2018-05-06T20:16:18.325Z,2.53
2018-05-06T20:18:46.599Z,2.33
2018-05-06T20:21:13.119Z,2.17
2018-05-06T20:23:39.755Z,2.07
2018-05-06T20:26:07.019Z,2.00
2018-05-06T20:28:33.449Z,2.70
2018-05-06T20:30:59.937Z,3.70
2018-05-06T20:33:27.332Z,3.40
2018-05-06T20:35:55.496Z,3.30
2018-05-06T20:38:22.004Z,3.17
2018-05-06T20:40:48.614Z,2.77
2018-05-06T20:43:15.132Z,3.30
2018-05-06T20:45:42.343Z,4.50
2018-05-06T20:48:08.882Z,3.53
2018-05-06T20:50:35.413Z,3.00
2018-05-06T20:53:02.670Z,4.00
2018-05-06T20:55:29.849Z,3.03
2018-05-06T20:57:56.393Z,4.33
2018-05-06T21:00:23.812Z,3.80
2018-05-06T21:02:50.380Z,3.70
2018-05-06T21:05:16.930Z,3.17
2018-05-06T21:07:44.090Z,3.70
2018-05-06T21:10:11.407Z,3.00
2018-05-06T21:12:37.950Z,3.20
2018-05-06T21:15:04.455Z,2.73
2018-05-06T21:17:31.647Z,2.80
2018-05-06T21:19:58.105Z,2.83
2018-05-06T21:22:24.590Z,2.43
2018-05-06T21:24:51.033Z,3.10
2018-05-06T21:27:17.456Z,3.00
2018-05-06T21:29:43.947Z,2.70
2018-05-06T21:32:10.336Z,3.23
2018-05-06T21:34:36.796Z,2.67
2018-05-06T21:37:03.278Z,3.47
2018-05-06T21:39:29.866Z,2.87
2018-05-06T21:41:56.348Z,2.30
2018-05-06T21:44:22.780Z,2.90
2018-05-06T21:46:49.155Z,2.73
2018-05-06T21:49:15.596Z,3.10
2018-05-06T21:51:42.030Z,3.03
2018-05-06T21:54:08.530Z,2.97
2018-05-06T21:56:34.952Z,2.80
2018-05-06T21:59:01.439Z,2.70
2018-05-06T22:01:27.863Z,2.53
2018-05-06T22:03:54.289Z,2.43
2018-05-06T22:06:20.798Z,3.17
2018-05-06T22:08:47.505Z,2.50
2018-05-06T22:11:14.057Z,3.00
2018-05-06T22:13:41.519Z,2.97
2018-05-06T22:16:08.013Z,2.13
2018-05-06T22:18:34.457Z,2.50
2018-05-06T22:21:01.024Z,2.73
2018-05-06T22:23:27.449Z,2.27
2018-05-06T22:25:53.835Z,2.83
2018-05-06T22:28:20.267Z,2.50
2018-05-06T22:30:46.692Z,2.90
2018-05-06T22:33:13.864Z,2.73
2018-05-06T22:35:40.244Z,3.17
2018-05-06T22:38:06.683Z,2.80
2018-05-06T22:40:33.074Z,2.50
2018-05-06T22:42:59.494Z,2.27
2018-05-06T22:45:25.911Z,2.67
2018-05-06T22:47:52.498Z,2.53
2018-05-06T22:50:18.956Z,2.93
2018-05-06T22:52:45.399Z,3.40
2018-05-06T22:55:11.900Z,2.63
2018-05-06T22:57:38.320Z,2.50
2018-05-06T23:00:04.801Z,2.63
2018-05-06T23:02:31.401Z,2.77
2018-05-06T23:04:57.868Z,3.13
2018-05-06T23:07:24.268Z,2.37
2018-05-06T23:09:50.649Z,2.80
2018-05-06T23:12:17.088Z,2.23
2018-05-06T23:14:43.504Z,2.33
2018-05-06T23:17:09.949Z,2.60
2018-05-06T23:19:36.381Z,2.00
2018-05-06T23:22:03.829Z,1.90
2018-05-06T23:24:30.291Z,1.83
2018-05-06T23:26:57.465Z,1.93
2018-05-06T23:29:23.944Z,2.63
2018-05-06T23:31:50.356Z,2.10
2018-05-06T23:34:17.489Z,2.10
2018-05-06T23:36:43.894Z,1.70
2018-05-06T23:39:10.279Z,1.60
2018-05-06T23:41:36.692Z,1.98
2018-05-06T23:44:03.056Z,1.80
2018-05-06T23:46:29.456Z,1.70
2018-05-06T23:48:56.659Z,1.80
2018-05-06T23:51:23.053Z,1.70
2018-05-06T23:53:49.443Z,1.80
2018-05-06T23:56:15.834Z,1.97
2018-05-06T23:58:42.255Z,1.62
